sensor_id;sensor_type;location;lat;lon;timestamp;P1;durP1;ratioP1;P2;durP2;ratioP2
7215;SDS011;3649;48.798;9.798;2022-11-15T00:00:57;12.80;;;8.70;;
7215;SDS011;3649;48.798;9.798;2022-11-15T00:03:24;14.03;;;8.57;;
7215;SDS011;3649;48.798;9.798;2022-11-15T00:05:53;11.43;;;7.67;;
7215;SDS011;3649;48.798;9.798;2022-11-15T00:08:20;11.30;;;7.17;;
7215;SDS011;3649;48.798;9.798;2022-11-15T00:10:57;9.47;;;6.23;;
7215;SDS011;3649;48.798;9.798;2022-11-15T00:13:25;9.77;;;4.90;;
7215;SDS011;3649;48.798;9.798;2022-11-15T00:15:54;8.83;;;6.50;;
7215;SDS011;3649;48.798;9.798;2022-11-15T00:18:24;15.03;;;8.60;;
7215;SDS011;3649;48.798;9.798;2022-11-15T00:20:51;14.10;;;9.30;;
7215;SDS011;3649;48.798;9.798;2022-11-15T00:23:18;21.60;;;8.63;;
7215;SDS011;3649;48.798;9.798;2022-11-15T00:25:45;10.60;;;8.37;;
7215;SDS011;3649;48.798;9.798;2022-11-15T00:28:12;13.33;;;7.33;;
7215;SDS011;3649;48.798;9.798;2022-11-15T00:30:39;8.37;;;6.63;;
7215;SDS011;3649;48.798;9.798;2022-11-15T00:33:06;9.93;;;6.10;;
7215;SDS011;3649;48.798;9.798;2022-11-15T00:35:33;10.10;;;5.90;;
7215;SDS011;3649;48.798;9.798;2022-11-15T00:38:01;7.57;;;5.03;;
7215;SDS011;3649;48.798;9.798;2022-11-15T00:40:28;11.73;;;6.20;;
7215;SDS011;3649;48.798;9.798;2022-11-15T00:42:55;10.47;;;6.50;;
7215;SDS011;3649;48.798;9.798;2022-11-15T00:45:22;10.90;;;8.00;;
7215;SDS011;3649;48.798;9.798;2022-11-15T00:47:48;9.50;;;7.03;;
7215;SDS011;3649;48.798;9.798;2022-11-15T00:50:15;14.20;;;6.67;;
7215;SDS011;3649;48.798;9.798;2022-11-15T00:52:43;7.97;;;6.17;;
7215;SDS011;3649;48.798;9.798;2022-11-15T00:55:14;7.27;;;6.37;;
7215;SDS011;3649;48.798;9.798;2022-11-15T00:57:42;9.87;;;7.33;;
7215;SDS011;3649;48.798;9.798;2022-11-15T01:00:09;10.67;;;6.73;;
7215;SDS011;3649;48.798;9.798;2022-11-15T01:02:37;7.63;;;6.23;;
7215;SDS011;3649;48.798;9.798;2022-11-15T01:05:04;10.67;;;7.00;;
7215;SDS011;3649;48.798;9.798;2022-11-15T01:07:32;7.90;;;6.10;;
7215;SDS011;3649;48.798;9.798;2022-11-15T01:09:59;12.37;;;6.63;;
7215;SDS011;3649;48.798;9.798;2022-11-15T01:12:26;10.83;;;6.43;;
7215;SDS011;3649;48.798;9.798;2022-11-15T01:14:52;9.90;;;6.37;;
7215;SDS011;3649;48.798;9.798;2022-11-15T01:17:19;7.57;;;6.30;;
7215;SDS011;3649;48.798;9.798;2022-11-15T01:19:46;7.83;;;6.00;;
7215;SDS011;3649;48.798;9.798;2022-11-15T01:22:13;6.70;;;5.87;;
7215;SDS011;3649;48.798;9.798;2022-11-15T01:24:40;8.43;;;6.23;;
7215;SDS011;3649;48.798;9.798;2022-11-15T01:27:07;7.30;;;5.90;;
7215;SDS011;3649;48.798;9.798;2022-11-15T01:29:34;17.67;;;11.77;;
7215;SDS011;3649;48.798;9.798;2022-11-15T01:32:01;10.87;;;8.03;;
7215;SDS011;3649;48.798;9.798;2022-11-15T01:34:28;10.13;;;6.27;;
7215;SDS011;3649;48.798;9.798;2022-11-15T01:36:55;9.00;;;5.07;;
7215;SDS011;3649;48.798;9.798;2022-11-15T01:39:22;6.00;;;4.90;;
7215;SDS011;3649;48.798;9.798;2022-11-15T01:41:49;6.53;;;4.57;;
7215;SDS011;3649;48.798;9.798;2022-11-15T01:47:01;5.37;;;4.73;;
7215;SDS011;3649;48.798;9.798;2022-11-15T01:49:45;5.23;;;4.50;;
7215;SDS011;3649;48.798;9.798;2022-11-15T01:52:20;9.70;;;4.90;;
7215;SDS011;3649;48.798;9.798;2022-11-15T01:54:50;6.27;;;5.20;;
7215;SDS011;3649;48.798;9.798;2022-11-15T01:57:40;9.30;;;5.50;;
7215;SDS011;3649;48.798;9.798;2022-11-15T02:00:09;13.30;;;5.63;;
7215;SDS011;3649;48.798;9.798;2022-11-15T02:02:36;9.47;;;5.90;;
7215;SDS011;3649;48.798;9.798;2022-11-15T02:05:03;8.07;;;5.27;;
7215;SDS011;3649;48.798;9.798;2022-11-15T02:07:31;9.03;;;5.60;;
7215;SDS011;3649;48.798;9.798;2022-11-15T02:10:21;7.00;;;5.53;;
7215;SDS011;3649;48.798;9.798;2022-11-15T02:12:49;9.07;;;5.97;;
7215;SDS011;3649;48.798;9.798;2022-11-15T02:15:16;8.03;;;6.23;;
7215;SDS011;3649;48.798;9.798;2022-11-15T02:20:39;10.90;;;6.60;;
7215;SDS011;3649;48.798;9.798;2022-11-15T02:32:03;6.13;;;5.47;;
7215;SDS011;3649;48.798;9.798;2022-11-15T02:34:43;8.67;;;5.70;;
7215;SDS011;3649;48.798;9.798;2022-11-15T02:40:41;9.97;;;6.17;;
7215;SDS011;3649;48.798;9.798;2022-11-15T02:43:21;7.03;;;5.80;;
7215;SDS011;3649;48.798;9.798;2022-11-15T02:46:20;7.30;;;5.87;;
7215;SDS011;3649;48.798;9.798;2022-11-15T02:49:09;7.27;;;6.00;;
7215;SDS011;3649;48.798;9.798;2022-11-15T02:51:38;8.50;;;5.57;;
7215;SDS011;3649;48.798;9.798;2022-11-15T02:54:10;10.40;;;6.50;;
7215;SDS011;3649;48.798;9.798;2022-11-15T02:56:38;9.60;;;5.83;;
7215;SDS011;3649;48.798;9.798;2022-11-15T03:05:04;7.40;;;5.53;;
7215;SDS011;3649;48.798;9.798;2022-11-15T03:13:00;5.60;;;4.10;;
7215;SDS011;3649;48.798;9.798;2022-11-15T03:16:08;6.03;;;4.90;;
7215;SDS011;3649;48.798;9.798;2022-11-15T03:19:47;7.43;;;4.97;;
7215;SDS011;3649;48.798;9.798;2022-11-15T03:21:44;10.10;;;5.33;;
7215;SDS011;3649;48.798;9.798;2022-11-15T03:24:12;8.40;;;5.17;;
7215;SDS011;3649;48.798;9.798;2022-11-15T03:26:48;5.90;;;4.23;;
7215;SDS011;3649;48.798;9.798;2022-11-15T03:29:17;5.97;;;5.17;;
7215;SDS011;3649;48.798;9.798;2022-11-15T03:31:51;6.57;;;4.80;;
7215;SDS011;3649;48.798;9.798;2022-11-15T03:36:54;6.97;;;4.47;;
7215;SDS011;3649;48.798;9.798;2022-11-15T03:39:21;7.10;;;4.77;;
7215;SDS011;3649;48.798;9.798;2022-11-15T03:41:52;9.83;;;5.77;;
7215;SDS011;3649;48.798;9.798;2022-11-15T03:47:25;8.30;;;4.50;;
7215;SDS011;3649;48.798;9.798;2022-11-15T03:50:00;5.60;;;4.90;;
7215;SDS011;3649;48.798;9.798;2022-11-15T03:52:31;9.40;;;5.83;;
7215;SDS011;3649;48.798;9.798;2022-11-15T03:55:00;7.17;;;5.20;;
7215;SDS011;3649;48.798;9.798;2022-11-15T03:57:29;8.80;;;5.17;;
7215;SDS011;3649;48.798;9.798;2022-11-15T03:59:56;8.47;;;5.43;;
7215;SDS011;3649;48.798;9.798;2022-11-15T04:02:23;7.63;;;4.87;;
7215;SDS011;3649;48.798;9.798;2022-11-15T04:04:51;7.10;;;4.60;;
7215;SDS011;3649;48.798;9.798;2022-11-15T04:07:18;6.83;;;4.70;;
7215;SDS011;3649;48.798;9.798;2022-11-15T04:09:46;9.20;;;4.47;;
7215;SDS011;3649;48.798;9.798;2022-11-15T04:12:32;4.93;;;3.90;;
7215;SDS011;3649;48.798;9.798;2022-11-15T04:15:01;6.10;;;4.77;;
7215;SDS011;3649;48.798;9.798;2022-11-15T04:17:43;5.83;;;4.13;;
7215;SDS011;3649;48.798;9.798;2022-11-15T04:20:16;6.97;;;4.73;;
7215;SDS011;3649;48.798;9.798;2022-11-15T04:23:04;7.60;;;4.70;;
7215;SDS011;3649;48.798;9.798;2022-11-15T04:25:54;6.63;;;4.20;;
7215;SDS011;3649;48.798;9.798;2022-11-15T04:28:22;5.90;;;4.77;;
7215;SDS011;3649;48.798;9.798;2022-11-15T04:30:49;10.50;;;4.10;;
7215;SDS011;3649;48.798;9.798;2022-11-15T04:33:16;5.37;;;4.50;;
7215;SDS011;3649;48.798;9.798;2022-11-15T04:35:43;6.03;;;4.37;;
7215;SDS011;3649;48.798;9.798;2022-11-15T04:38:30;6.67;;;4.60;;
7215;SDS011;3649;48.798;9.798;2022-11-15T04:40:57;5.00;;;4.00;;
7215;SDS011;3649;48.798;9.798;2022-11-15T04:43:24;6.03;;;4.20;;
7215;SDS011;3649;48.798;9.798;2022-11-15T04:45:51;6.47;;;4.63;;
7215;SDS011;3649;48.798;9.798;2022-11-15T04:48:18;7.13;;;5.73;;
7215;SDS011;3649;48.798;9.798;2022-11-15T04:50:47;9.90;;;5.90;;
7215;SDS011;3649;48.798;9.798;2022-11-15T04:53:14;10.20;;;5.53;;
7215;SDS011;3649;48.798;9.798;2022-11-15T04:55:43;5.73;;;4.70;;
7215;SDS011;3649;48.798;9.798;2022-11-15T04:58:11;12.93;;;5.30;;
7215;SDS011;3649;48.798;9.798;2022-11-15T05:00:38;5.93;;;4.73;;
7215;SDS011;3649;48.798;9.798;2022-11-15T05:03:06;7.73;;;6.00;;
7215;SDS011;3649;48.798;9.798;2022-11-15T05:05:53;8.20;;;5.50;;
7215;SDS011;3649;48.798;9.798;2022-11-15T05:08:20;7.60;;;5.90;;
7215;SDS011;3649;48.798;9.798;2022-11-15T05:10:48;6.47;;;5.27;;
7215;SDS011;3649;48.798;9.798;2022-11-15T05:13:16;6.83;;;5.33;;
7215;SDS011;3649;48.798;9.798;2022-11-15T05:15:44;7.07;;;5.90;;
7215;SDS011;3649;48.798;9.798;2022-11-15T05:18:13;6.83;;;5.20;;
7215;SDS011;3649;48.798;9.798;2022-11-15T05:20:47;7.83;;;5.43;;
7215;SDS011;3649;48.798;9.798;2022-11-15T05:23:14;11.07;;;5.47;;
7215;SDS011;3649;48.798;9.798;2022-11-15T05:25:41;8.50;;;4.97;;
7215;SDS011;3649;48.798;9.798;2022-11-15T05:28:08;8.87;;;5.80;;
7215;SDS011;3649;48.798;9.798;2022-11-15T05:30:35;8.83;;;6.03;;
7215;SDS011;3649;48.798;9.798;2022-11-15T05:33:01;11.20;;;7.03;;
7215;SDS011;3649;48.798;9.798;2022-11-15T05:35:32;9.33;;;6.03;;
7215;SDS011;3649;48.798;9.798;2022-11-15T05:38:05;6.80;;;5.73;;
7215;SDS011;3649;48.798;9.798;2022-11-15T05:40:32;11.80;;;5.77;;
7215;SDS011;3649;48.798;9.798;2022-11-15T05:43:00;9.07;;;5.53;;
7215;SDS011;3649;48.798;9.798;2022-11-15T05:45:31;9.43;;;4.60;;
7215;SDS011;3649;48.798;9.798;2022-11-15T05:47:59;6.07;;;4.67;;
7215;SDS011;3649;48.798;9.798;2022-11-15T05:50:31;9.70;;;4.10;;
7215;SDS011;3649;48.798;9.798;2022-11-15T05:52:59;8.37;;;4.30;;
7215;SDS011;3649;48.798;9.798;2022-11-15T05:55:30;6.83;;;4.20;;
7215;SDS011;3649;48.798;9.798;2022-11-15T05:57:57;7.37;;;4.27;;
7215;SDS011;3649;48.798;9.798;2022-11-15T06:00:25;5.50;;;4.67;;
7215;SDS011;3649;48.798;9.798;2022-11-15T06:02:52;6.87;;;4.80;;
7215;SDS011;3649;48.798;9.798;2022-11-15T06:05:19;8.57;;;6.20;;
7215;SDS011;3649;48.798;9.798;2022-11-15T06:07:46;10.37;;;7.50;;
7215;SDS011;3649;48.798;9.798;2022-11-15T06:10:13;13.93;;;8.00;;
7215;SDS011;3649;48.798;9.798;2022-11-15T06:12:40;11.97;;;8.30;;
7215;SDS011;3649;48.798;9.798;2022-11-15T06:15:07;11.47;;;7.77;;
7215;SDS011;3649;48.798;9.798;2022-11-15T06:17:35;9.17;;;6.20;;
7215;SDS011;3649;48.798;9.798;2022-11-15T06:20:02;8.07;;;6.03;;
7215;SDS011;3649;48.798;9.798;2022-11-15T06:22:29;8.77;;;4.40;;
7215;SDS011;3649;48.798;9.798;2022-11-15T06:24:56;5.17;;;4.67;;
7215;SDS011;3649;48.798;9.798;2022-11-15T06:27:30;11.93;;;6.87;;
7215;SDS011;3649;48.798;9.798;2022-11-15T06:29:57;13.87;;;7.80;;
7215;SDS011;3649;48.798;9.798;2022-11-15T06:32:24;10.13;;;6.90;;
7215;SDS011;3649;48.798;9.798;2022-11-15T06:34:51;12.83;;;6.87;;
7215;SDS011;3649;48.798;9.798;2022-11-15T06:37:17;7.33;;;5.63;;
7215;SDS011;3649;48.798;9.798;2022-11-15T06:39:44;8.47;;;6.13;;
7215;SDS011;3649;48.798;9.798;2022-11-15T06:42:11;11.27;;;6.23;;
7215;SDS011;3649;48.798;9.798;2022-11-15T06:44:38;7.40;;;5.90;;
7215;SDS011;3649;48.798;9.798;2022-11-15T06:47:05;9.37;;;6.67;;
7215;SDS011;3649;48.798;9.798;2022-11-15T06:49:32;9.87;;;5.87;;
7215;SDS011;3649;48.798;9.798;2022-11-15T06:51:59;14.03;;;6.23;;
7215;SDS011;3649;48.798;9.798;2022-11-15T06:54:25;11.87;;;5.47;;
7215;SDS011;3649;48.798;9.798;2022-11-15T06:56:52;8.23;;;5.93;;
7215;SDS011;3649;48.798;9.798;2022-11-15T06:59:19;8.87;;;7.03;;
7215;SDS011;3649;48.798;9.798;2022-11-15T07:01:46;10.50;;;6.70;;
7215;SDS011;3649;48.798;9.798;2022-11-15T07:04:13;11.27;;;6.57;;
7215;SDS011;3649;48.798;9.798;2022-11-15T07:06:40;11.30;;;6.67;;
7215;SDS011;3649;48.798;9.798;2022-11-15T07:09:07;9.63;;;6.13;;
7215;SDS011;3649;48.798;9.798;2022-11-15T07:11:34;6.67;;;5.20;;
7215;SDS011;3649;48.798;9.798;2022-11-15T07:14:01;7.23;;;5.10;;
7215;SDS011;3649;48.798;9.798;2022-11-15T07:16:27;10.17;;;5.90;;
7215;SDS011;3649;48.798;9.798;2022-11-15T07:18:54;15.57;;;6.63;;
7215;SDS011;3649;48.798;9.798;2022-11-15T07:21:21;12.27;;;6.50;;
7215;SDS011;3649;48.798;9.798;2022-11-15T07:23:52;10.73;;;6.60;;
7215;SDS011;3649;48.798;9.798;2022-11-15T07:26:19;20.63;;;7.50;;
7215;SDS011;3649;48.798;9.798;2022-11-15T07:28:48;15.73;;;8.57;;
7215;SDS011;3649;48.798;9.798;2022-11-15T07:31:14;20.07;;;9.50;;
7215;SDS011;3649;48.798;9.798;2022-11-15T07:33:41;15.87;;;9.60;;
7215;SDS011;3649;48.798;9.798;2022-11-15T07:36:08;20.17;;;9.53;;
7215;SDS011;3649;48.798;9.798;2022-11-15T07:38:35;15.10;;;9.50;;
7215;SDS011;3649;48.798;9.798;2022-11-15T07:41:08;17.30;;;9.77;;
7215;SDS011;3649;48.798;9.798;2022-11-15T07:43:35;18.30;;;10.53;;
7215;SDS011;3649;48.798;9.798;2022-11-15T07:46:06;15.77;;;10.27;;
7215;SDS011;3649;48.798;9.798;2022-11-15T07:48:36;16.93;;;10.50;;
7215;SDS011;3649;48.798;9.798;2022-11-15T07:51:12;12.73;;;8.37;;
7215;SDS011;3649;48.798;9.798;2022-11-15T07:53:41;15.17;;;9.50;;
7215;SDS011;3649;48.798;9.798;2022-11-15T07:56:09;15.10;;;10.10;;
7215;SDS011;3649;48.798;9.798;2022-11-15T07:58:36;17.57;;;10.17;;
7215;SDS011;3649;48.798;9.798;2022-11-15T08:01:04;13.20;;;8.80;;
7215;SDS011;3649;48.798;9.798;2022-11-15T08:03:32;17.50;;;10.20;;
7215;SDS011;3649;48.798;9.798;2022-11-15T08:06:00;19.13;;;9.37;;
7215;SDS011;3649;48.798;9.798;2022-11-15T08:08:27;14.60;;;9.90;;
7215;SDS011;3649;48.798;9.798;2022-11-15T08:10:54;13.97;;;9.40;;
7215;SDS011;3649;48.798;9.798;2022-11-15T08:13:24;13.03;;;7.67;;
7215;SDS011;3649;48.798;9.798;2022-11-15T08:15:51;11.40;;;6.67;;
7215;SDS011;3649;48.798;9.798;2022-11-15T08:18:23;12.03;;;7.07;;
7215;SDS011;3649;48.798;9.798;2022-11-15T08:20:50;7.17;;;5.10;;
7215;SDS011;3649;48.798;9.798;2022-11-15T08:23:17;11.30;;;7.73;;
7215;SDS011;3649;48.798;9.798;2022-11-15T08:25:43;10.57;;;5.87;;
7215;SDS011;3649;48.798;9.798;2022-11-15T08:28:10;10.77;;;7.07;;
7215;SDS011;3649;48.798;9.798;2022-11-15T08:30:38;11.37;;;5.90;;
7215;SDS011;3649;48.798;9.798;2022-11-15T08:33:11;7.50;;;5.90;;
7215;SDS011;3649;48.798;9.798;2022-11-15T08:35:40;10.67;;;5.53;;
7215;SDS011;3649;48.798;9.798;2022-11-15T08:38:08;11.10;;;5.90;;
7215;SDS011;3649;48.798;9.798;2022-11-15T08:40:36;11.00;;;5.80;;
7215;SDS011;3649;48.798;9.798;2022-11-15T08:43:03;9.30;;;7.43;;
7215;SDS011;3649;48.798;9.798;2022-11-15T08:45:31;18.73;;;8.80;;
7215;SDS011;3649;48.798;9.798;2022-11-15T08:48:01;11.13;;;6.70;;
7215;SDS011;3649;48.798;9.798;2022-11-15T08:50:29;11.83;;;7.20;;
7215;SDS011;3649;48.798;9.798;2022-11-15T08:52:56;11.10;;;7.03;;
7215;SDS011;3649;48.798;9.798;2022-11-15T08:55:23;7.37;;;6.57;;
7215;SDS011;3649;48.798;9.798;2022-11-15T08:57:50;12.30;;;7.27;;
7215;SDS011;3649;48.798;9.798;2022-11-15T09:00:17;16.53;;;6.63;;
7215;SDS011;3649;48.798;9.798;2022-11-15T09:02:46;11.47;;;6.80;;
7215;SDS011;3649;48.798;9.798;2022-11-15T09:05:13;8.43;;;6.50;;
7215;SDS011;3649;48.798;9.798;2022-11-15T09:07:41;11.07;;;6.17;;
7215;SDS011;3649;48.798;9.798;2022-11-15T09:10:09;7.27;;;6.00;;
7215;SDS011;3649;48.798;9.798;2022-11-15T09:12:36;6.80;;;5.10;;
7215;SDS011;3649;48.798;9.798;2022-11-15T09:15:04;8.90;;;5.37;;
7215;SDS011;3649;48.798;9.798;2022-11-15T09:17:32;5.80;;;5.20;;
7215;SDS011;3649;48.798;9.798;2022-11-15T09:19:59;10.93;;;6.13;;
7215;SDS011;3649;48.798;9.798;2022-11-15T09:22:26;8.60;;;6.13;;
7215;SDS011;3649;48.798;9.798;2022-11-15T09:24:53;14.37;;;5.80;;
7215;SDS011;3649;48.798;9.798;2022-11-15T09:27:19;9.57;;;5.90;;
7215;SDS011;3649;48.798;9.798;2022-11-15T09:29:46;8.07;;;7.27;;
7215;SDS011;3649;48.798;9.798;2022-11-15T09:32:13;25.27;;;18.90;;
7215;SDS011;3649;48.798;9.798;2022-11-15T09:34:40;21.47;;;15.37;;
7215;SDS011;3649;48.798;9.798;2022-11-15T09:37:07;15.63;;;9.40;;
7215;SDS011;3649;48.798;9.798;2022-11-15T09:39:34;9.10;;;6.00;;
7215;SDS011;3649;48.798;9.798;2022-11-15T09:48:35;7.60;;;6.90;;
7215;SDS011;3649;48.798;9.798;2022-11-15T09:50:51;9.87;;;5.97;;
7215;SDS011;3649;48.798;9.798;2022-11-15T09:53:36;7.97;;;5.60;;
7215;SDS011;3649;48.798;9.798;2022-11-15T09:56:36;9.07;;;4.97;;
7215;SDS011;3649;48.798;9.798;2022-11-15T10:04:21;11.03;;;6.50;;
7215;SDS011;3649;48.798;9.798;2022-11-15T10:06:52;6.57;;;5.10;;
7215;SDS011;3649;48.798;9.798;2022-11-15T10:09:30;7.07;;;5.23;;
7215;SDS011;3649;48.798;9.798;2022-11-15T10:12:23;10.50;;;5.63;;
7215;SDS011;3649;48.798;9.798;2022-11-15T10:14:55;6.50;;;5.60;;
7215;SDS011;3649;48.798;9.798;2022-11-15T10:17:31;9.47;;;6.00;;
7215;SDS011;3649;48.798;9.798;2022-11-15T10:20:14;8.50;;;5.60;;
7215;SDS011;3649;48.798;9.798;2022-11-15T10:22:54;7.60;;;5.57;;
7215;SDS011;3649;48.798;9.798;2022-11-15T10:25:23;8.30;;;5.60;;
7215;SDS011;3649;48.798;9.798;2022-11-15T10:30:42;7.03;;;5.10;;
7215;SDS011;3649;48.798;9.798;2022-11-15T10:35:43;17.53;;;12.50;;
7215;SDS011;3649;48.798;9.798;2022-11-15T10:38:11;15.90;;;8.97;;
7215;SDS011;3649;48.798;9.798;2022-11-15T10:40:39;16.27;;;8.20;;
7215;SDS011;3649;48.798;9.798;2022-11-15T10:45:37;20.57;;;13.73;;
7215;SDS011;3649;48.798;9.798;2022-11-15T10:50:41;14.70;;;10.80;;
7215;SDS011;3649;48.798;9.798;2022-11-15T10:53:12;16.37;;;8.77;;
7215;SDS011;3649;48.798;9.798;2022-11-15T10:55:59;11.07;;;7.07;;
7215;SDS011;3649;48.798;9.798;2022-11-15T11:01:10;8.23;;;5.90;;
7215;SDS011;3649;48.798;9.798;2022-11-15T11:03:39;6.13;;;5.13;;
7215;SDS011;3649;48.798;9.798;2022-11-15T11:11:23;6.43;;;4.90;;
7215;SDS011;3649;48.798;9.798;2022-11-15T11:13:51;7.40;;;4.93;;
7215;SDS011;3649;48.798;9.798;2022-11-15T11:24:55;7.33;;;5.53;;
7215;SDS011;3649;48.798;9.798;2022-11-15T11:27:31;6.80;;;4.43;;
7215;SDS011;3649;48.798;9.798;2022-11-15T11:30:08;6.90;;;4.47;;
7215;SDS011;3649;48.798;9.798;2022-11-15T11:43:30;4.47;;;3.53;;
7215;SDS011;3649;48.798;9.798;2022-11-15T11:49:10;3.73;;;3.23;;
7215;SDS011;3649;48.798;9.798;2022-11-15T11:52:00;5.00;;;3.00;;
7215;SDS011;3649;48.798;9.798;2022-11-15T11:55:05;3.60;;;3.30;;
7215;SDS011;3649;48.798;9.798;2022-11-15T11:57:44;4.80;;;3.57;;
7215;SDS011;3649;48.798;9.798;2022-11-15T12:00:20;4.00;;;3.23;;
7215;SDS011;3649;48.798;9.798;2022-11-15T12:08:31;6.77;;;3.07;;
7215;SDS011;3649;48.798;9.798;2022-11-15T12:11:49;3.13;;;2.80;;
7215;SDS011;3649;48.798;9.798;2022-11-15T12:17:19;5.10;;;2.80;;
7215;SDS011;3649;48.798;9.798;2022-11-15T12:19:58;3.33;;;2.90;;
7215;SDS011;3649;48.798;9.798;2022-11-15T12:22:41;3.90;;;2.90;;
7215;SDS011;3649;48.798;9.798;2022-11-15T12:25:20;6.40;;;2.60;;
7215;SDS011;3649;48.798;9.798;2022-11-15T12:30:56;3.73;;;2.87;;
7215;SDS011;3649;48.798;9.798;2022-11-15T12:41:27;3.17;;;2.47;;
7215;SDS011;3649;48.798;9.798;2022-11-15T12:43:54;4.43;;;2.70;;
7215;SDS011;3649;48.798;9.798;2022-11-15T12:49:02;3.87;;;2.87;;
7215;SDS011;3649;48.798;9.798;2022-11-15T12:59:53;2.30;;;2.10;;
7215;SDS011;3649;48.798;9.798;2022-11-15T13:02:24;10.07;;;3.00;;
7215;SDS011;3649;48.798;9.798;2022-11-15T13:22:50;2.60;;;2.40;;
7215;SDS011;3649;48.798;9.798;2022-11-15T13:25:27;3.70;;;3.30;;
7215;SDS011;3649;48.798;9.798;2022-11-15T13:33:35;4.60;;;2.90;;
7215;SDS011;3649;48.798;9.798;2022-11-15T13:36:06;3.43;;;3.00;;
7215;SDS011;3649;48.798;9.798;2022-11-15T13:39:04;3.47;;;3.17;;
7215;SDS011;3649;48.798;9.798;2022-11-15T13:41:45;3.47;;;2.97;;
7215;SDS011;3649;48.798;9.798;2022-11-15T13:44:22;3.93;;;2.63;;
7215;SDS011;3649;48.798;9.798;2022-11-15T13:49:31;6.27;;;3.20;;
7215;SDS011;3649;48.798;9.798;2022-11-15T13:52:00;2.70;;;2.50;;
7215;SDS011;3649;48.798;9.798;2022-11-15T13:55:17;3.00;;;2.70;;
7215;SDS011;3649;48.798;9.798;2022-11-15T13:57:29;2.87;;;2.67;;
7215;SDS011;3649;48.798;9.798;2022-11-15T14:00:04;3.70;;;2.33;;
7215;SDS011;3649;48.798;9.798;2022-11-15T14:02:48;3.37;;;3.07;;
7215;SDS011;3649;48.798;9.798;2022-11-15T14:05:16;2.50;;;2.30;;
7215;SDS011;3649;48.798;9.798;2022-11-15T14:07:58;7.13;;;2.60;;
7215;SDS011;3649;48.798;9.798;2022-11-15T14:10:31;3.93;;;2.70;;
7215;SDS011;3649;48.798;9.798;2022-11-15T14:13:00;3.87;;;2.47;;
7215;SDS011;3649;48.798;9.798;2022-11-15T14:15:33;5.93;;;2.80;;
7215;SDS011;3649;48.798;9.798;2022-11-15T14:18:01;4.63;;;3.30;;
7215;SDS011;3649;48.798;9.798;2022-11-15T14:20:30;8.03;;;5.70;;
7215;SDS011;3649;48.798;9.798;2022-11-15T14:23:00;6.90;;;5.70;;
7215;SDS011;3649;48.798;9.798;2022-11-15T14:25:29;4.80;;;4.37;;
7215;SDS011;3649;48.798;9.798;2022-11-15T14:28:14;4.40;;;4.00;;
7215;SDS011;3649;48.798;9.798;2022-11-15T14:30:56;4.07;;;3.67;;
7215;SDS011;3649;48.798;9.798;2022-11-15T14:33:34;6.00;;;4.50;;
7215;SDS011;3649;48.798;9.798;2022-11-15T14:36:10;5.83;;;4.37;;
7215;SDS011;3649;48.798;9.798;2022-11-15T14:38:42;5.30;;;4.07;;
7215;SDS011;3649;48.798;9.798;2022-11-15T14:43:47;6.17;;;3.70;;
7215;SDS011;3649;48.798;9.798;2022-11-15T14:46:14;4.40;;;2.93;;
7215;SDS011;3649;48.798;9.798;2022-11-15T14:48:42;3.43;;;3.13;;
7215;SDS011;3649;48.798;9.798;2022-11-15T14:51:18;8.97;;;3.60;;
7215;SDS011;3649;48.798;9.798;2022-11-15T14:53:46;6.43;;;3.50;;
7215;SDS011;3649;48.798;9.798;2022-11-15T14:56:13;11.47;;;3.50;;
7215;SDS011;3649;48.798;9.798;2022-11-15T14:58:42;12.80;;;3.70;;
7215;SDS011;3649;48.798;9.798;2022-11-15T15:01:10;5.93;;;3.93;;
7215;SDS011;3649;48.798;9.798;2022-11-15T15:03:50;7.27;;;4.40;;
7215;SDS011;3649;48.798;9.798;2022-11-15T15:06:24;8.17;;;3.90;;
7215;SDS011;3649;48.798;9.798;2022-11-15T15:08:52;7.90;;;4.03;;
7215;SDS011;3649;48.798;9.798;2022-11-15T15:11:23;8.67;;;4.00;;
7215;SDS011;3649;48.798;9.798;2022-11-15T15:13:53;10.07;;;4.43;;
7215;SDS011;3649;48.798;9.798;2022-11-15T15:16:23;11.27;;;4.80;;
7215;SDS011;3649;48.798;9.798;2022-11-15T15:18:50;10.70;;;4.73;;
7215;SDS011;3649;48.798;9.798;2022-11-15T15:21:23;8.97;;;4.93;;
7215;SDS011;3649;48.798;9.798;2022-11-15T15:23:57;11.40;;;4.77;;
7215;SDS011;3649;48.798;9.798;2022-11-15T15:26:24;10.87;;;6.30;;
7215;SDS011;3649;48.798;9.798;2022-11-15T15:28:51;9.93;;;6.33;;
7215;SDS011;3649;48.798;9.798;2022-11-15T15:31:18;16.30;;;5.50;;
7215;SDS011;3649;48.798;9.798;2022-11-15T15:33:45;12.73;;;6.27;;
7215;SDS011;3649;48.798;9.798;2022-11-15T15:36:12;14.70;;;5.30;;
7215;SDS011;3649;48.798;9.798;2022-11-15T15:38:41;24.87;;;7.30;;
7215;SDS011;3649;48.798;9.798;2022-11-15T15:41:09;10.33;;;6.10;;
7215;SDS011;3649;48.798;9.798;2022-11-15T15:43:39;12.30;;;5.60;;
7215;SDS011;3649;48.798;9.798;2022-11-15T15:46:16;13.03;;;5.87;;
7215;SDS011;3649;48.798;9.798;2022-11-15T15:48:45;9.90;;;5.50;;
7215;SDS011;3649;48.798;9.798;2022-11-15T15:51:12;15.57;;;6.50;;
7215;SDS011;3649;48.798;9.798;2022-11-15T15:53:46;17.77;;;6.47;;
7215;SDS011;3649;48.798;9.798;2022-11-15T15:56:14;11.93;;;6.27;;
7215;SDS011;3649;48.798;9.798;2022-11-15T15:58:40;10.33;;;6.17;;
7215;SDS011;3649;48.798;9.798;2022-11-15T16:01:07;12.20;;;6.70;;
7215;SDS011;3649;48.798;9.798;2022-11-15T16:03:34;26.30;;;7.20;;
7215;SDS011;3649;48.798;9.798;2022-11-15T16:06:01;9.87;;;6.40;;
7215;SDS011;3649;48.798;9.798;2022-11-15T16:08:30;12.83;;;6.03;;
7215;SDS011;3649;48.798;9.798;2022-11-15T16:11:17;13.47;;;6.33;;
7215;SDS011;3649;48.798;9.798;2022-11-15T16:13:44;15.67;;;6.50;;
7215;SDS011;3649;48.798;9.798;2022-11-15T16:16:12;12.87;;;5.90;;
7215;SDS011;3649;48.798;9.798;2022-11-15T16:18:39;10.93;;;5.83;;
7215;SDS011;3649;48.798;9.798;2022-11-15T16:21:07;9.20;;;5.70;;
7215;SDS011;3649;48.798;9.798;2022-11-15T16:23:34;13.97;;;5.57;;
7215;SDS011;3649;48.798;9.798;2022-11-15T16:26:01;16.60;;;6.23;;
7215;SDS011;3649;48.798;9.798;2022-11-15T16:28:45;9.53;;;4.90;;
7215;SDS011;3649;48.798;9.798;2022-11-15T16:31:14;16.20;;;5.77;;
7215;SDS011;3649;48.798;9.798;2022-11-15T16:33:44;11.77;;;6.00;;
7215;SDS011;3649;48.798;9.798;2022-11-15T16:36:33;10.50;;;5.77;;
7215;SDS011;3649;48.798;9.798;2022-11-15T16:39:00;9.43;;;6.50;;
7215;SDS011;3649;48.798;9.798;2022-11-15T16:41:30;8.17;;;5.70;;
7215;SDS011;3649;48.798;9.798;2022-11-15T16:43:57;17.13;;;6.30;;
7215;SDS011;3649;48.798;9.798;2022-11-15T16:46:25;15.80;;;6.57;;
7215;SDS011;3649;48.798;9.798;2022-11-15T16:48:52;16.77;;;6.67;;
7215;SDS011;3649;48.798;9.798;2022-11-15T16:51:20;9.47;;;6.20;;
7215;SDS011;3649;48.798;9.798;2022-11-15T16:53:47;8.33;;;6.10;;
7215;SDS011;3649;48.798;9.798;2022-11-15T16:56:26;14.30;;;7.53;;
7215;SDS011;3649;48.798;9.798;2022-11-15T16:58:54;13.33;;;8.93;;
7215;SDS011;3649;48.798;9.798;2022-11-15T17:01:35;14.77;;;9.27;;
7215;SDS011;3649;48.798;9.798;2022-11-15T17:04:12;20.03;;;9.47;;
7215;SDS011;3649;48.798;9.798;2022-11-15T17:06:40;13.57;;;7.80;;
7215;SDS011;3649;48.798;9.798;2022-11-15T17:09:14;12.63;;;8.87;;
7215;SDS011;3649;48.798;9.798;2022-11-15T17:11:44;12.43;;;7.87;;
7215;SDS011;3649;48.798;9.798;2022-11-15T17:14:11;13.40;;;8.60;;
7215;SDS011;3649;48.798;9.798;2022-11-15T17:16:38;12.67;;;7.73;;
7215;SDS011;3649;48.798;9.798;2022-11-15T17:19:14;11.97;;;7.13;;
7215;SDS011;3649;48.798;9.798;2022-11-15T17:21:46;15.13;;;8.33;;
7215;SDS011;3649;48.798;9.798;2022-11-15T17:24:17;14.67;;;8.57;;
7215;SDS011;3649;48.798;9.798;2022-11-15T17:26:46;16.27;;;8.10;;
7215;SDS011;3649;48.798;9.798;2022-11-15T17:29:13;16.93;;;6.90;;
7215;SDS011;3649;48.798;9.798;2022-11-15T17:31:40;14.43;;;8.03;;
7215;SDS011;3649;48.798;9.798;2022-11-15T17:34:07;18.27;;;9.00;;
7215;SDS011;3649;48.798;9.798;2022-11-15T17:36:33;16.30;;;8.07;;
7215;SDS011;3649;48.798;9.798;2022-11-15T17:39:01;14.27;;;8.00;;
7215;SDS011;3649;48.798;9.798;2022-11-15T17:41:29;25.37;;;8.90;;
7215;SDS011;3649;48.798;9.798;2022-11-15T17:43:56;20.93;;;9.30;;
7215;SDS011;3649;48.798;9.798;2022-11-15T17:46:26;15.70;;;9.63;;
7215;SDS011;3649;48.798;9.798;2022-11-15T17:48:56;19.27;;;9.63;;
7215;SDS011;3649;48.798;9.798;2022-11-15T17:51:23;17.13;;;9.70;;
7215;SDS011;3649;48.798;9.798;2022-11-15T17:53:50;12.43;;;8.60;;
7215;SDS011;3649;48.798;9.798;2022-11-15T17:56:19;22.97;;;10.43;;
7215;SDS011;3649;48.798;9.798;2022-11-15T17:58:53;13.93;;;9.03;;